Terminal Aerodrome Forecast
Issued by NWS Flagstaff, AZ

Home | Current Version | Previous Version | Text Only | Print | Product List | Glossary On
Versions: 1 2 3 4 5 6 7 8 9 10 11 12 13 14 15 16 17
000
FTUS45 KFGZ 040535
TAFFLG
TAF
KFLG 040535Z 0406/0506 VRB06KT P6SM FEW030 SCT080 BKN120
      TEMPO 0406/0409 5SM -SHRA SCT020 BKN060
     FM041800 24009KT P6SM SCT050 BKN100 PROB30 0420/0424 5SM TSRA
      BKN050CB
     FM050300 VRB03KT P6SM FEW060 SCT110=

USA.gov is the U.S. government's official web portal to all federal, state and local government web resources and services.